Time;durP1;ratioP1;P1;durP2;ratioP2;P2;SDS_P1;SDS_P2;PMS_P1;PMS_P2;Temp;Humidity;BMP_temperature;BMP_pressure;BME280_temperature;BME280_humidity;BME280_pressure;Samples;Min_cycle;Max_cycle;Signal;HPM_P1;HPM_P2
2022/09/22 00:01:27;;;;;;;7.45;6.05;;;;;;;9.02;100.00;101484.50;4930010;29;20051;-78
2022/09/22 00:03:55;;;;;;;6.78;5.90;;;;;;;9.01;100.00;101501.16;4927269;29;20083;-76
2022/09/22 00:06:26;;;;;;;9.40;6.47;;;;;;;9.04;100.00;101489.78;4931490;29;20052;-77
2022/09/22 00:08:55;;;;;;;8.38;6.22;;;;;;;9.08;100.00;101489.88;4930274;29;20059;-77
2022/09/22 00:11:23;;;;;;;6.63;5.95;;;;;;;9.12;100.00;101488.19;4932046;29;20510;-77
2022/09/22 00:13:58;;;;;;;7.38;6.22;;;;;;;9.11;100.00;101487.28;4930316;29;20043;-77
2022/09/22 00:16:36;;;;;;;8.02;6.22;;;;;;;9.09;100.00;101488.09;4932345;29;20044;-77
2022/09/22 00:19:03;;;;;;;8.55;6.25;;;;;;;9.07;100.00;101492.50;4932797;29;20079;-77
2022/09/22 00:21:29;;;;;;;7.72;6.93;;;;;;;9.05;100.00;101489.81;4934862;29;20099;-77
2022/09/22 00:23:55;;;;;;;8.45;6.75;;;;;;;8.93;100.00;101490.53;4953876;29;20486;-77
2022/09/22 00:26:22;;;;;;;7.47;6.65;;;;;;;8.87;100.00;101485.16;4937611;29;20102;-78
2022/09/22 00:28:48;;;;;;;9.23;7.32;;;;;;;8.85;100.00;101481.59;4932979;29;20045;-78
2022/09/22 00:31:19;;;;;;;7.78;6.75;;;;;;;8.87;100.00;101484.25;4934653;29;20484;-76
2022/09/22 00:33:45;;;;;;;8.35;7.20;;;;;;;8.84;100.00;101479.84;4938771;29;20040;-77
2022/09/22 00:36:11;;;;;;;8.85;7.10;;;;;;;8.83;100.00;101475.44;4934296;29;20937;-77
2022/09/22 00:38:38;;;;;;;9.02;6.80;;;;;;;8.78;100.00;101471.84;4935733;29;20419;-77
2022/09/22 00:41:04;;;;;;;13.85;7.63;;;;;;;8.73;100.00;101474.41;4939721;29;20499;-78
2022/09/22 00:43:35;;;;;;;9.88;8.00;;;;;;;8.63;100.00;101471.59;4934696;29;20046;-77
2022/09/22 00:46:21;;;;;;;7.53;6.78;;;;;;;8.58;100.00;101474.16;4929152;29;20071;-77
2022/09/22 00:49:02;;;;;;;9.82;7.95;;;;;;;8.55;100.00;101474.97;4932329;29;20511;-77
2022/09/22 00:51:31;;;;;;;8.63;7.70;;;;;;;8.55;100.00;101471.47;4937169;29;20043;-78
2022/09/22 00:53:58;;;;;;;8.27;7.35;;;;;;;8.48;100.00;101469.56;4936704;29;20040;-76
2022/09/22 00:56:29;;;;;;;8.65;7.75;;;;;;;8.38;100.00;101467.59;4936531;29;20066;-78
2022/09/22 00:59:00;;;;;;;8.98;7.53;;;;;;;8.35;100.00;101471.94;4938215;29;20059;-77
2022/09/22 01:01:26;;;;;;;9.88;7.75;;;;;;;8.28;100.00;101464.84;4939253;29;20080;-78
2022/09/22 01:03:51;;;;;;;10.48;8.30;;;;;;;8.23;100.00;101469.13;4936532;29;20119;-77
2022/09/22 01:06:22;;;;;;;8.25;7.45;;;;;;;8.22;100.00;101466.44;4940549;29;20062;-76
2022/09/22 01:08:47;;;;;;;11.00;8.45;;;;;;;8.17;100.00;101468.97;4937198;29;20039;-77
2022/09/22 01:11:14;;;;;;;10.07;7.80;;;;;;;8.16;100.00;101464.59;4931822;29;20088;-77
2022/09/22 01:14:01;;;;;;;10.00;6.93;;;;;;;8.13;100.00;101467.19;4933920;29;20071;-77
2022/09/22 01:16:48;;;;;;;8.25;7.25;;;;;;;8.09;100.00;101454.81;4931119;29;20048;-77
2022/09/22 01:19:32;;;;;;;10.75;8.10;;;;;;;8.08;100.00;101459.19;4932428;29;20047;-77
2022/09/22 01:22:31;;;;;;;14.63;11.75;;;;;;;8.02;100.00;101464.34;4936865;29;20043;-77
2022/09/22 01:25:33;;;;;;;8.98;7.97;;;;;;;7.89;100.00;101460.59;4935358;29;20040;-77
2022/09/22 01:28:24;;;;;;;10.57;7.45;;;;;;;7.91;100.00;101468.47;4953150;28;20111;-77
2022/09/22 01:31:06;;;;;;;8.23;7.10;;;;;;;7.91;100.00;101463.22;4938307;29;20048;-77
2022/09/22 01:33:51;;;;;;;8.63;7.32;;;;;;;7.94;100.00;101458.06;4936101;29;20044;-77
2022/09/22 01:36:19;;;;;;;9.32;7.22;;;;;;;7.90;100.00;101457.09;4936709;29;20421;-77
2022/09/22 01:39:14;;;;;;;13.60;7.88;;;;;;;7.90;100.00;101464.97;4934994;29;20519;-77
2022/09/22 01:42:02;;;;;;;9.10;6.80;;;;;;;7.85;100.00;101457.84;4938209;29;20074;-77
2022/09/22 01:44:33;;;;;;;10.82;7.78;;;;;;;7.81;100.00;101463.94;4949562;29;20060;-77
2022/09/22 01:47:08;;;;;;;8.20;7.38;;;;;;;7.75;100.00;101455.91;4951437;29;20036;-78
2022/09/22 01:49:39;;;;;;;9.27;6.93;;;;;;;7.71;100.00;101457.59;4935484;29;20516;-77
2022/09/22 01:52:17;;;;;;;9.63;6.80;;;;;;;7.71;100.00;101457.59;4941324;29;20179;-77
2022/09/22 01:54:48;;;;;;;27.05;8.45;;;;;;;7.69;100.00;101454.03;4936748;29;20487;-78
2022/09/22 01:57:21;;;;;;;8.82;7.40;;;;;;;7.62;100.00;101447.78;4937295;29;20070;-77
2022/09/22 01:59:52;;;;;;;23.10;7.53;;;;;;;7.42;100.00;101450.00;4936328;29;20059;-77
2022/09/22 02:02:31;;;;;;;6.65;5.80;;;;;;;7.29;100.00;101450.56;4940329;29;20039;-77
2022/09/22 02:05:01;;;;;;;8.02;6.72;;;;;;;7.14;100.00;101445.88;4935578;29;20043;-78
2022/09/22 02:07:32;;;;;;;7.03;6.25;;;;;;;7.07;100.00;101450.94;4936012;29;20142;-78
2022/09/22 02:10:01;;;;;;;7.63;6.72;;;;;;;7.02;100.00;101446.50;4940440;29;20044;-78
2022/09/22 02:12:27;;;;;;;7.97;5.85;;;;;;;7.01;100.00;101443.81;4936711;29;20054;-78
2022/09/22 02:14:53;;;;;;;7.40;6.47;;;;;;;7.03;100.00;101447.38;4935240;29;20040;-77
2022/09/22 02:17:18;;;;;;;9.18;6.90;;;;;;;7.04;100.00;101451.75;4934468;29;20040;-77
2022/09/22 02:19:44;;;;;;;8.80;6.70;;;;;;;6.94;100.00;101448.06;4936566;29;20050;-78
2022/09/22 02:22:10;;;;;;;12.10;7.80;;;;;;;6.94;100.00;101455.94;4937549;29;20047;-78
2022/09/22 02:24:37;;;;;;;8.10;6.68;;;;;;;6.93;100.00;101451.50;4934370;29;20032;-77
2022/09/22 02:27:11;;;;;;;8.43;7.15;;;;;;;6.89;100.00;101447.06;4934692;29;20031;-78
2022/09/22 02:29:42;;;;;;;10.60;7.38;;;;;;;6.89;100.00;101447.06;4916897;29;20446;-77
2022/09/22 02:32:13;;;;;;;8.40;7.07;;;;;;;6.80;100.00;101454.69;4937814;29;20099;-77
2022/09/22 02:34:38;;;;;;;8.48;6.40;;;;;;;6.70;100.00;101455.31;4932562;29;20044;-77
2022/09/22 02:37:14;;;;;;;7.20;6.50;;;;;;;6.67;100.00;101455.25;4932892;29;20040;-77
2022/09/22 02:40:04;;;;;;;10.00;6.78;;;;;;;6.58;100.00;101454.19;4930285;29;20062;-77
2022/09/22 02:42:37;;;;;;;8.15;6.53;;;;;;;6.54;100.00;101452.31;4930192;29;20107;-77
2022/09/22 02:45:12;;;;;;;;;;;;;;;6.51;100.00;101454.88;4946579;29;20054;-78
2022/09/22 02:47:51;;;;;;;7.60;5.95;;;;;;;6.47;100.00;101460.91;4930608;29;19919;-77
2022/09/22 02:50:20;;;;;;;9.68;5.50;;;;;;;6.36;100.00;101455.34;4932645;29;20040;-77
2022/09/22 02:52:45;;;;;;;6.65;5.82;;;;;;;6.27;100.00;101454.25;4931045;29;20048;-75
2022/09/22 02:55:12;;;;;;;9.95;6.78;;;;;;;6.22;100.00;101455.84;4936875;29;20160;-78
2022/09/22 02:57:37;;;;;;;12.93;9.82;;;;;;;6.16;100.00;101448.72;4932154;29;20068;-77
2022/09/22 03:00:04;;;;;;;11.13;8.70;;;;;;;6.13;100.00;101446.91;4936328;29;20070;-78
2022/09/22 03:02:30;;;;;;;9.43;6.60;;;;;;;6.11;100.00;101447.72;4933065;29;20055;-77
2022/09/22 03:04:56;;;;;;;55.25;8.77;;;;;;;6.10;100.00;101443.31;4933473;29;20468;-78
2022/09/22 03:07:22;;;;;;;316.33;26.15;;;;;;;6.08;100.00;101445.91;4935966;29;20035;-77
2022/09/22 03:09:47;;;;;;;11.48;7.13;;;;;;;6.02;100.00;101450.94;4933621;29;20024;-77
2022/09/22 03:12:12;;;;;;;95.07;12.88;;;;;;;5.96;100.00;101442.06;4934581;29;20071;-77
2022/09/22 03:14:37;;;;;;;10.60;6.72;;;;;;;5.92;100.00;101444.56;4939956;29;20058;-77
2022/09/22 03:17:03;;;;;;;8.43;7.20;;;;;;;5.87;100.00;101445.28;4935067;29;20063;-77
2022/09/22 03:19:28;;;;;;;6.47;5.75;;;;;;;5.80;100.00;101445.97;4934044;29;20497;-77
2022/09/22 03:21:54;;;;;;;6.10;5.50;;;;;;;5.78;100.00;101450.25;4938256;29;20040;-78
2022/09/22 03:24:19;;;;;;;6.60;4.97;;;;;;;5.70;100.00;101450.91;4935979;29;20040;-78
2022/09/22 03:26:44;;;;;;;5.72;5.07;;;;;;;5.66;100.00;101446.47;4933563;29;20124;-78
2022/09/22 03:29:10;;;;;;;8.10;5.90;;;;;;;5.67;100.00;101447.34;4932357;29;20135;-76
2022/09/22 03:31:35;;;;;;;7.70;6.43;;;;;;;5.69;100.00;101446.53;4939581;29;20067;-77
2022/09/22 03:34:00;;;;;;;7.97;6.60;;;;;;;5.65;100.00;101449.91;4932208;29;20111;-77
2022/09/22 03:36:26;;;;;;;8.27;6.88;;;;;;;5.59;100.00;101447.13;4930785;29;20075;-78
2022/09/22 03:38:51;;;;;;;8.95;6.65;;;;;;;5.56;100.00;101454.88;4934709;29;20043;-77
2022/09/22 03:41:17;;;;;;;7.50;5.63;;;;;;;5.50;100.00;101449.44;4945249;29;20050;-77
2022/09/22 03:43:43;;;;;;;10.25;7.30;;;;;;;5.48;100.00;101445.94;4933900;29;20043;-78
2022/09/22 03:46:08;;;;;;;8.95;5.53;;;;;;;5.46;100.00;101448.50;4953284;28;20043;-77
2022/09/22 03:48:33;;;;;;;8.98;6.60;;;;;;;5.47;100.00;101452.00;4932747;29;20055;-77
2022/09/22 03:50:59;;;;;;;7.97;6.97;;;;;;;5.50;100.00;101454.69;4934704;29;20094;-77
2022/09/22 03:53:25;;;;;;;8.55;5.60;;;;;;;5.45;100.00;101462.44;4931673;28;20049;-77
2022/09/22 03:55:51;;;;;;;6.85;5.30;;;;;;;5.37;100.00;101449.94;4938261;29;20046;-77
2022/09/22 03:58:18;;;;;;;8.23;5.90;;;;;;;5.30;100.00;101455.84;4926066;29;20040;-77
2022/09/22 04:00:44;;;;;;;6.72;5.90;;;;;;;5.27;100.00;101454.91;4929550;29;20046;-77
2022/09/22 04:03:11;;;;;;;11.15;5.68;;;;;;;5.22;100.00;101453.88;4928041;29;20039;-77
2022/09/22 04:05:36;;;;;;;7.45;5.72;;;;;;;5.20;100.00;101450.31;4925361;29;20215;-77
2022/09/22 04:08:01;;;;;;;9.30;7.45;;;;;;;5.18;100.00;101452.00;4940224;29;20080;-77
2022/09/22 04:10:27;;;;;;;11.43;5.95;;;;;;;5.18;100.00;101451.13;4928311;29;20039;-75
2022/09/22 04:12:52;;;;;;;7.47;5.68;;;;;;;5.17;100.00;101454.59;4924569;29;20031;-77
2022/09/22 04:15:17;;;;;;;10.50;6.25;;;;;;;5.14;100.00;101454.50;4926940;29;20039;-75
2022/09/22 04:17:44;;;;;;;10.30;6.63;;;;;;;5.13;100.00;101448.34;4929862;29;20051;-76
2022/09/22 04:20:10;;;;;;;9.25;7.85;;;;;;;5.17;100.00;101452.84;4923078;29;20054;-77
2022/09/22 04:22:36;;;;;;;8.90;7.35;;;;;;;5.20;100.00;101449.44;4939233;29;20122;-77
2022/09/22 04:25:01;;;;;;;19.55;7.75;;;;;;;5.23;100.00;101450.41;4926390;29;20044;-77
2022/09/22 04:27:26;;;;;;;8.77;5.97;;;;;;;5.19;100.00;101447.69;4930052;29;20115;-77
2022/09/22 04:29:52;;;;;;;7.78;6.00;;;;;;;5.15;100.00;101451.91;4932355;29;20035;-77
2022/09/22 04:32:17;;;;;;;6.15;5.32;;;;;;;5.11;100.00;101449.16;4928820;29;20122;-76
2022/09/22 04:34:43;;;;;;;5.80;4.60;;;;;;;5.05;100.00;101455.09;4925484;29;20046;-77
2022/09/22 04:37:10;;;;;;;6.63;5.07;;;;;;;4.98;100.00;101448.78;4942641;28;20086;-77
2022/09/22 04:39:36;;;;;;;7.15;4.97;;;;;;;4.96;100.00;101460.03;4925155;29;20048;-76
2022/09/22 04:42:02;;;;;;;17.67;6.95;;;;;;;4.96;100.00;101452.19;4930320;29;20053;-77
2022/09/22 04:44:27;;;;;;;7.43;5.75;;;;;;;4.94;100.00;101452.13;4932440;29;20061;-76
2022/09/22 04:46:54;;;;;;;11.10;6.03;;;;;;;4.93;100.00;101457.34;4931382;29;20653;-76
2022/09/22 04:49:20;;;;;;;11.32;6.20;;;;;;;4.89;100.00;101471.16;4931840;29;20040;-77
2022/09/22 04:51:45;;;;;;;10.43;5.90;;;;;;;4.90;100.00;101467.69;4930412;29;20035;-77
2022/09/22 04:54:10;;;;;;;9.32;6.20;;;;;;;4.91;100.00;101466.84;4936369;29;20040;-77
2022/09/22 04:56:35;;;;;;;9.98;6.97;;;;;;;4.89;100.00;101464.19;4933921;29;20055;-77
2022/09/22 04:59:01;;;;;;;7.93;6.35;;;;;;;4.88;100.00;101466.75;4934032;29;20043;-77
2022/09/22 05:01:27;;;;;;;8.13;5.82;;;;;;;4.91;100.00;101466.84;4937186;28;20066;-77
2022/09/22 05:03:52;;;;;;;8.77;6.05;;;;;;;4.92;100.00;101468.63;4937581;29;20047;-76
2022/09/22 05:06:18;;;;;;;6.90;5.40;;;;;;;4.87;100.00;101464.97;4935362;29;20059;-77
2022/09/22 05:08:43;;;;;;;7.25;6.15;;;;;;;4.83;100.00;101471.84;4934554;29;20122;-77
2022/09/22 05:11:09;;;;;;;7.10;6.25;;;;;;;4.85;100.00;101467.56;4934850;29;20126;-77
2022/09/22 05:13:37;;;;;;;6.63;5.80;;;;;;;4.87;100.00;101468.47;4933860;29;20091;-77
2022/09/22 05:16:04;;;;;;;8.20;6.30;;;;;;;4.87;100.00;101464.97;4931545;29;20043;-77
2022/09/22 05:18:31;;;;;;;6.35;5.50;;;;;;;4.92;100.00;101472.13;4937845;29;20567;-77
2022/09/22 05:20:56;;;;;;;8.25;6.25;;;;;;;4.91;100.00;101475.59;4938491;29;20055;-77
2022/09/22 05:23:21;;;;;;;9.85;6.22;;;;;;;4.96;100.00;101474.00;4929557;29;20052;-77
2022/09/22 05:25:46;;;;;;;8.50;5.85;;;;;;;5.01;100.00;101474.16;4930276;29;20062;-76
2022/09/22 05:28:12;;;;;;;8.18;6.50;;;;;;;5.05;100.00;101476.00;4941974;29;20053;-77
2022/09/22 05:30:37;;;;;;;6.97;5.88;;;;;;;5.10;100.00;101477.06;4929996;29;20070;-77
2022/09/22 05:33:03;;;;;;;8.52;6.43;;;;;;;5.18;100.00;101472.06;4924685;29;20562;-77
2022/09/22 05:35:28;;;;;;;10.55;6.20;;;;;;;5.23;100.00;101473.97;4932084;29;20078;-77
2022/09/22 05:37:53;;;;;;;12.93;7.43;;;;;;;5.28;100.00;101479.34;4929827;29;20028;-77
2022/09/22 05:40:19;;;;;;;11.23;8.48;;;;;;;5.32;100.00;101476.00;4934407;29;20039;-78
2022/09/22 05:42:47;;;;;;;14.90;7.90;;;;;;;5.40;100.00;101484.97;4933035;29;20067;-77
2022/09/22 05:45:13;;;;;;;11.63;8.15;;;;;;;5.41;100.00;101483.22;4934778;29;20134;-77
2022/09/22 05:47:39;;;;;;;8.73;7.47;;;;;;;5.43;100.00;101490.28;4935012;29;20050;-77
2022/09/22 05:50:06;;;;;;;16.00;9.82;;;;;;;5.52;100.00;101487.06;4932240;29;20061;-77
2022/09/22 05:52:32;;;;;;;12.57;9.13;;;;;;;5.60;100.00;101482.91;4938457;29;20075;-78
2022/09/22 05:54:57;;;;;;;14.73;10.40;;;;;;;5.61;100.00;101489.97;4933199;29;20036;-78
2022/09/22 05:57:26;;;;;;;12.90;9.02;;;;;;;5.71;100.00;101484.16;4933813;29;20061;-77
2022/09/22 05:59:51;;;;;;;13.35;8.82;;;;;;;5.86;100.00;101494.16;4946645;28;20071;-77
2022/09/22 06:02:17;;;;;;;10.30;8.27;;;;;;;5.95;100.00;101492.66;4938052;29;20059;-78
2022/09/22 06:04:48;;;;;;;10.93;9.15;;;;;;;6.03;100.00;101494.69;4938329;29;20048;-78
2022/09/22 06:07:14;;;;;;;12.57;8.45;;;;;;;6.14;100.00;101493.22;4950054;29;20088;-78
2022/09/22 06:09:39;;;;;;;12.60;8.57;;;;;;;6.27;100.00;101488.31;4946855;29;20032;-79
2022/09/22 06:12:07;;;;;;;10.60;8.48;;;;;;;6.40;100.00;101484.31;4946832;29;20078;-78
2022/09/22 06:14:33;;;;;;;12.45;9.05;;;;;;;6.50;100.00;101487.19;4943701;29;20043;-77
2022/09/22 06:16:59;;;;;;;9.40;8.27;;;;;;;6.61;100.00;101484.84;4953264;29;20063;-79
2022/09/22 06:19:25;;;;;;;18.23;8.98;;;;;;;6.67;100.00;101487.59;4946888;29;20059;-77
2022/09/22 06:21:51;;;;;;;9.65;8.50;;;;;;;6.78;100.00;101487.88;4950443;29;20047;-78
2022/09/22 06:24:16;;;;;;;14.88;9.70;;;;;;;6.87;100.00;101490.75;4954049;29;20031;-78
2022/09/22 06:26:42;;;;;;;12.98;8.77;;;;;;;6.94;100.00;101494.38;4945939;29;20036;-79
2022/09/22 06:29:15;;;;;;;12.32;9.10;;;;;;;7.03;100.00;101487.63;4947763;29;20027;-77
2022/09/22 06:31:40;;;;;;;11.38;8.27;;;;;;;7.11;100.00;101486.91;4950573;29;20055;-78
2022/09/22 06:34:07;;;;;;;10.85;8.30;;;;;;;7.27;100.00;101488.16;4946777;29;20430;-79
2022/09/22 06:36:33;;;;;;;17.10;9.55;;;;;;;7.37;100.00;101487.50;4953181;29;20499;-79
2022/09/22 06:39:00;;;;;;;14.98;9.82;;;;;;;7.45;100.00;101489.44;4947232;29;20040;-78
2022/09/22 06:41:31;;;;;;;13.30;8.88;;;;;;;7.56;100.00;101483.53;4963006;29;20078;-78
2022/09/22 06:44:00;;;;;;;11.05;8.35;;;;;;;7.68;100.00;101479.44;4960496;28;20061;-78
2022/09/22 06:46:29;;;;;;;9.90;8.20;;;;;;;7.82;100.00;101486.72;4949941;29;20040;-79
2022/09/22 06:48:57;;;;;;;9.60;8.07;;;;;;;7.92;100.00;101479.91;4946751;29;20121;-79
2022/09/22 06:51:29;;;;;;;9.07;6.75;;;;;;;8.04;100.00;101486.31;4951008;29;20046;-78
2022/09/22 06:53:55;;;;;;;11.57;7.30;;;;;;;8.14;100.00;101489.97;4951356;29;20060;-79
2022/09/22 06:56:23;;;;;;;11.68;8.38;;;;;;;8.21;100.00;101485.72;4948205;29;20027;-79
2022/09/22 06:58:49;;;;;;;8.32;7.53;;;;;;;8.32;100.00;101482.41;4947093;29;20048;-78
2022/09/22 07:01:15;;;;;;;10.90;8.20;;;;;;;8.44;100.00;101492.31;4948703;29;20046;-78
2022/09/22 07:03:41;;;;;;;8.88;7.95;;;;;;;8.53;100.00;101489.84;4957442;29;20064;-78
2022/09/22 07:06:08;;;;;;;8.00;7.20;;;;;;;8.62;100.00;101489.13;4930446;29;20171;-78
2022/09/22 07:08:34;;;;;;;8.65;7.75;;;;;;;8.73;100.00;101490.19;4946236;29;20046;-78
2022/09/22 07:11:03;;;;;;;9.43;8.07;;;;;;;8.82;100.00;101496.47;4943825;29;20072;-78
2022/09/22 07:13:30;;;;;;;10.27;7.93;;;;;;;8.92;100.00;101491.38;4947245;29;20043;-78
2022/09/22 07:16:27;;;;;;;10.60;9.30;;;;;;;9.10;100.00;101497.81;4948328;29;20032;-79
2022/09/22 07:18:55;;;;;;;8.68;7.45;;;;;;;9.20;100.00;101495.31;4937534;29;20119;-79
2022/09/22 07:21:26;;;;;;;8.88;6.75;;;;;;;9.31;100.00;101494.59;4947558;29;20040;-78
2022/09/22 07:23:56;;;;;;;7.78;6.97;;;;;;;9.40;100.00;101497.34;4944399;29;20447;-78
2022/09/22 07:26:32;;;;;;;9.80;7.70;;;;;;;9.46;100.00;101494.81;4944532;29;20036;-79
2022/09/22 07:29:00;;;;;;;8.85;7.82;;;;;;;9.52;100.00;101500.16;4931378;29;20067;-80
2022/09/22 07:31:29;;;;;;;8.88;7.97;;;;;;;9.68;100.00;101495.97;4927393;29;20079;-79
2022/09/22 07:33:55;;;;;;;12.27;7.90;;;;;;;9.79;100.00;101496.13;4939898;29;20049;-80
2022/09/22 07:36:22;;;;;;;9.38;7.55;;;;;;;9.91;100.00;101490.13;4935363;29;20032;-79
2022/09/22 07:38:50;;;;;;;11.40;9.05;;;;;;;10.03;100.00;101490.25;4926275;29;20042;-79
2022/09/22 07:41:20;;;;;;;7.97;7.18;;;;;;;10.01;100.00;101495.53;4930295;29;20567;-79
2022/09/22 07:43:48;;;;;;;8.70;7.70;;;;;;;10.10;100.00;101495.59;4926107;29;20044;-80
2022/09/22 07:46:14;;;;;;;8.65;7.75;;;;;;;10.21;100.00;101486.94;4928843;29;20047;-80
2022/09/22 07:48:46;;;;;;;8.30;7.50;;;;;;;10.40;100.00;101493.31;4924975;29;20050;-80
2022/09/22 07:51:18;;;;;;;8.85;7.88;;;;;;;10.51;100.00;101486.41;4929624;29;20098;-80
2022/09/22 07:53:45;;;;;;;10.43;8.27;;;;;;;10.61;100.00;101487.34;4923669;29;20054;-78
2022/09/22 07:56:14;;;;;;;9.90;8.88;;;;;;;10.68;99.92;101489.19;4928494;29;20661;-78
2022/09/22 07:58:45;;;;;;;9.70;8.68;;;;;;;10.80;100.00;101486.66;4929062;29;20043;-77
2022/09/22 08:01:11;;;;;;;9.32;7.93;;;;;;;10.94;100.00;101484.09;4941623;28;20032;-78
2022/09/22 08:03:36;;;;;;;11.93;7.75;;;;;;;11.10;100.00;101498.31;4926327;29;20079;-78
2022/09/22 08:06:09;;;;;;;8.05;7.25;;;;;;;11.23;98.82;101499.28;4930093;29;20039;-77
2022/09/22 08:08:41;;;;;;;8.80;8.00;;;;;;;11.43;97.38;101499.41;4919355;29;20443;-78
2022/09/22 08:11:12;;;;;;;8.05;7.25;;;;;;;11.51;96.23;101501.22;4929606;29;20044;-79
2022/09/22 08:13:39;;;;;;;7.05;6.43;;;;;;;11.78;94.81;101494.28;4924759;29;20074;-79
2022/09/22 08:16:05;;;;;;;12.50;10.98;;;;;;;12.18;94.36;101489.16;4926873;29;20122;-80
2022/09/22 08:18:32;;;;;;;7.10;6.45;;;;;;;12.42;90.16;101491.00;4926211;29;20131;-80
2022/09/22 08:20:59;;;;;;;7.43;6.72;;;;;;;12.59;90.14;101494.53;4942900;29;20131;-79
2022/09/22 08:23:24;;;;;;;7.22;6.47;;;;;;;12.45;88.04;101491.00;4926123;29;20040;-79
2022/09/22 08:25:50;;;;;;;7.82;7.07;;;;;;;12.52;89.91;101489.22;4924231;29;20047;-79
2022/09/22 08:28:15;;;;;;;8.38;6.53;;;;;;;12.68;90.49;101491.00;4941699;29;20044;-80
2022/09/22 08:30:47;;;;;;;6.72;6.13;;;;;;;12.78;89.86;101498.06;4925794;29;20044;-79
2022/09/22 08:33:12;;;;;;;6.38;5.78;;;;;;;12.76;86.87;101493.66;4924515;29;20035;-80
2022/09/22 08:35:49;;;;;;;6.47;5.88;;;;;;;12.66;87.00;101496.31;4926241;29;20090;-79
2022/09/22 08:38:15;;;;;;;9.57;7.53;;;;;;;12.64;88.34;101495.41;4928380;29;20496;-80
2022/09/22 08:40:43;;;;;;;9.35;8.45;;;;;;;12.77;88.98;101504.25;4924025;29;20044;-80
2022/09/22 08:43:10;;;;;;;7.75;6.80;;;;;;;12.86;87.26;101500.72;4941126;29;20408;-79
2022/09/22 08:45:38;;;;;;;7.20;6.20;;;;;;;12.86;87.51;101501.63;4921844;29;20060;-80
2022/09/22 08:53:50;;;;;;;7.10;6.50;;;;;;;12.98;86.48;101487.47;4929153;29;20055;-80
2022/09/22 08:56:35;;;;;;;6.50;5.90;;;;;;;13.07;85.84;101490.13;4928480;29;20043;-78
2022/09/22 08:59:22;;;;;;;6.63;6.00;;;;;;;13.10;85.59;101486.59;4925068;29;20072;-79
2022/09/22 09:02:11;;;;;;;7.22;5.80;;;;;;;13.23;85.83;101491.00;4926942;29;20122;-80
2022/09/22 09:05:10;;;;;;;6.38;5.78;;;;;;;13.35;84.18;101490.09;4931175;29;20038;-80
2022/09/22 09:08:14;;;;;;;7.15;6.45;;;;;;;13.34;84.39;101489.22;4926967;29;20052;-79
2022/09/22 09:10:51;;;;;;;6.30;5.63;;;;;;;13.23;81.69;101490.09;4939828;29;20131;-80
2022/09/22 09:13:40;;;;;;;5.97;5.38;;;;;;;13.38;82.76;101490.97;4925539;29;20048;-79
2022/09/22 09:16:31;;;;;;;6.85;6.15;;;;;;;13.73;80.28;101486.47;4933630;29;20035;-80
2022/09/22 09:19:10;;;;;;;5.65;5.15;;;;;;;13.95;80.41;101487.25;4928781;29;20570;-80
2022/09/22 09:21:39;;;;;;;6.53;5.88;;;;;;;14.10;76.92;101486.28;4934000;29;20090;-79
2022/09/22 09:24:15;;;;;;;6.40;5.47;;;;;;;14.37;77.18;101479.94;4929286;29;20032;-79
2022/09/22 09:26:41;;;;;;;5.47;4.97;;;;;;;14.70;75.61;101484.16;4929528;29;20043;-79
2022/09/22 09:29:16;;;;;;;6.32;5.80;;;;;;;15.01;74.31;101483.88;4932403;29;20035;-79
2022/09/22 09:31:47;;;;;;;6.35;5.72;;;;;;;15.24;71.08;101479.19;4928824;29;20059;-79
2022/09/22 09:34:18;;;;;;;6.03;5.53;;;;;;;15.43;71.80;101474.59;4926804;29;20051;-80
2022/09/22 09:37:07;;;;;;;6.50;6.00;;;;;;;15.56;70.29;101475.31;4925347;29;20479;-80
2022/09/22 09:39:36;;;;;;;5.95;5.45;;;;;;;15.73;70.07;101476.03;4918932;29;20048;-79
2022/09/22 09:42:16;;;;;;;5.05;4.65;;;;;;;15.92;66.22;101475.78;4936316;29;20513;-79
2022/09/22 09:44:42;;;;;;;5.78;5.32;;;;;;;15.74;66.91;101467.13;4929290;29;20040;-79
2022/09/22 09:47:20;;;;;;;8.48;5.25;;;;;;;15.51;67.04;101474.47;4933088;29;20163;-80
2022/09/22 09:49:46;;;;;;;6.30;5.70;;;;;;;15.47;67.86;101467.44;4932149;29;20028;-80
2022/09/22 09:52:13;;;;;;;24.40;14.15;;;;;;;15.50;68.39;101462.97;4928372;29;20491;-80
2022/09/22 09:54:45;;;;;;;7.85;7.15;;;;;;;15.69;67.92;101471.66;4936188;28;20032;-80
2022/09/22 09:57:14;;;;;;;9.30;5.68;;;;;;;15.92;65.88;101463.34;4933641;29;20039;-80
2022/09/22 10:02:58;;;;;;;6.78;6.18;;;;;;;16.79;65.58;101460.28;4936102;29;20510;-79
2022/09/22 10:05:57;;;;;;;5.80;4.95;;;;;;;16.90;64.15;101463.69;4925726;29;20538;-80
2022/09/22 10:08:33;;;;;;;5.22;4.82;;;;;;;16.63;64.13;101462.31;4906827;29;20048;-79
2022/09/22 10:11:09;;;;;;;;;;;;;;;16.74;61.72;101451.47;4901753;29;20064;-80
2022/09/22 10:13:37;;;;;;;5.35;4.95;;;;;;;16.83;60.92;101456.69;4916159;29;19915;-78
2022/09/22 10:16:14;;;;;;;5.10;4.70;;;;;;;16.55;60.15;101445.56;4908142;29;20044;-79
2022/09/22 10:18:39;;;;;;;5.85;5.38;;;;;;;16.60;62.33;101444.56;4934101;29;20159;-79
2022/09/22 10:21:22;;;;;;;6.80;5.57;;;;;;;17.03;61.05;101435.88;4930917;29;20042;-79
2022/09/22 10:23:52;;;;;;;5.78;5.28;;;;;;;17.45;61.69;101435.97;4924047;29;20039;-79
2022/09/22 10:26:25;;;;;;;6.20;5.72;;;;;;;17.66;57.99;101434.63;4940843;29;20044;-79
2022/09/22 10:29:17;;;;;;;5.95;5.45;;;;;;;17.61;56.25;101435.66;4925010;29;20098;-79
2022/09/22 10:32:10;;;;;;;5.63;5.07;;;;;;;17.87;56.32;101432.44;4930271;29;20044;-80
2022/09/22 10:34:43;;;;;;;6.25;5.65;;;;;;;17.99;57.57;101437.50;4932452;29;20032;-79
2022/09/22 10:37:10;;;;;;;5.88;5.38;;;;;;;18.06;57.54;101427.56;4933387;29;20078;-79
2022/09/22 10:39:50;;;;;;;5.35;4.95;;;;;;;18.27;55.05;101432.41;4929801;29;20142;-79
2022/09/22 10:42:34;;;;;;;5.40;5.00;;;;;;;18.51;54.20;101419.38;4931352;29;20050;-80
2022/09/22 10:45:05;;;;;;;4.95;4.50;;;;;;;18.61;54.11;101418.22;4928179;29;20058;-79
2022/09/22 10:47:56;;;;;;;5.20;4.80;;;;;;;18.36;53.03;101424.16;4926845;29;20562;-78
2022/09/22 10:50:30;;;;;;;5.30;4.43;;;;;;;18.38;54.91;101430.34;4935073;29;20047;-79
2022/09/22 10:53:09;;;;;;;4.95;4.47;;;;;;;18.31;52.71;101428.75;4929658;29;20048;-78
2022/09/22 10:55:47;;;;;;;5.25;4.85;;;;;;;18.18;53.74;101429.94;4942314;29;20388;-79
2022/09/22 10:58:26;;;;;;;4.72;4.40;;;;;;;18.09;52.15;101430.16;4927853;29;20162;-79
2022/09/22 11:01:02;;;;;;;4.38;4.07;;;;;;;18.02;53.43;101431.22;4928196;29;20524;-80
2022/09/22 11:03:58;;;;;;;7.03;4.05;;;;;;;18.00;53.21;101433.94;4930838;29;20039;-79
2022/09/22 11:13:11;;;;;;;;;;;;;;;17.43;52.39;101432.44;4929033;29;20043;-79
2022/09/22 11:16:06;;;;;;;4.68;4.32;;;;;;;17.41;52.11;101433.38;4930987;29;19918;-79
2022/09/22 11:18:56;;;;;;;5.25;4.85;;;;;;;17.40;52.37;101431.63;4933380;29;20058;-79
2022/09/22 11:21:39;;;;;;;5.53;5.13;;;;;;;17.26;52.40;101430.09;4952488;28;20126;-78
2022/09/22 11:24:37;;;;;;;6.00;5.53;;;;;;;17.31;53.32;101432.66;4925054;29;20068;-79
2022/09/22 11:27:02;;;;;;;6.28;5.10;;;;;;;17.32;52.79;101429.13;4925480;29;20071;-79
2022/09/22 11:29:36;;;;;;;5.88;5.43;;;;;;;17.38;53.23;101434.31;4930429;29;20103;-78
2022/09/22 11:32:08;;;;;;;6.15;5.72;;;;;;;17.38;53.23;101426.31;4932194;29;20114;-79
2022/09/22 11:34:36;;;;;;;6.45;5.95;;;;;;;17.49;53.13;101421.63;4928811;29;20046;-79
2022/09/22 11:37:26;;;;;;;6.28;5.78;;;;;;;17.52;51.21;101415.34;4926767;29;20079;-78
2022/09/22 11:40:07;;;;;;;6.10;5.47;;;;;;;17.66;52.15;101412.41;4925334;29;20040;-79
2022/09/22 11:42:46;;;;;;;5.25;4.78;;;;;;;17.64;50.68;101414.22;4928319;29;20043;-79
2022/09/22 11:45:42;;;;;;;5.55;5.15;;;;;;;17.77;49.94;101413.03;4929698;29;20032;-79
2022/09/22 11:48:33;;;;;;;5.50;5.10;;;;;;;17.73;49.39;101408.66;4932679;29;20040;-79
2022/09/22 11:51:28;;;;;;;5.00;4.60;;;;;;;17.31;50.06;101408.66;4926347;29;20048;-77
2022/09/22 11:54:20;;;;;;;5.38;4.97;;;;;;;17.26;50.54;101414.06;4925241;29;20060;-77
2022/09/22 11:56:50;;;;;;;5.88;5.38;;;;;;;17.38;51.46;101412.09;4929552;29;20048;-77
2022/09/22 11:59:34;;;;;;;4.95;4.55;;;;;;;17.15;50.88;101409.88;4941937;29;20122;-77